sensor_id;sensor_type;location;lat;lon;timestamp;pressure;altitude;pressure_sealevel;temperature;humidity
13041;BME280;6587;42.728;23.288;2022-09-20T14:01:43;95099.25;;;20.62;37.60
13041;BME280;6587;42.728;23.288;2022-09-20T14:04:15;95094.88;;;20.22;39.29
13041;BME280;6587;42.728;23.288;2022-09-20T14:06:44;95090.06;;;21.00;37.97
13041;BME280;6587;42.728;23.288;2022-09-20T14:09:19;95088.09;;;20.42;39.38
13041;BME280;6587;42.728;23.288;2022-09-20T14:11:47;95099.41;;;19.68;40.61
13041;BME280;6587;42.728;23.288;2022-09-20T14:14:14;95078.81;;;20.84;37.22
13041;BME280;6587;42.728;23.288;2022-09-20T14:16:44;95086.81;;;20.97;37.69
13041;BME280;6587;42.728;23.288;2022-09-20T14:19:15;95102.38;;;18.54;41.72
13041;BME280;6587;42.728;23.288;2022-09-20T14:21:44;95091.53;;;19.51;40.64
13041;BME280;6587;42.728;23.288;2022-09-20T14:24:25;95083.19;;;19.47;38.86
13041;BME280;6587;42.728;23.288;2022-09-20T14:27:03;95078.56;;;19.57;40.00
13041;BME280;6587;42.728;23.288;2022-09-20T14:29:37;95097.38;;;19.78;39.47
13041;BME280;6587;42.728;23.288;2022-09-20T14:32:15;95092.06;;;19.84;39.41
13041;BME280;6587;42.728;23.288;2022-09-20T14:34:44;95086.31;;;20.01;39.65
13041;BME280;6587;42.728;23.288;2022-09-20T14:37:14;95085.38;;;20.25;39.68
13041;BME280;6587;42.728;23.288;2022-09-20T14:39:47;95068.69;;;20.82;39.35
13041;BME280;6587;42.728;23.288;2022-09-20T14:42:19;95089.47;;;22.30;36.83
13041;BME280;6587;42.728;23.288;2022-09-20T14:44:50;95086.22;;;22.08;35.93
13041;BME280;6587;42.728;23.288;2022-09-20T14:47:26;95086.97;;;23.17;35.50
13041;BME280;6587;42.728;23.288;2022-09-20T14:49:54;95092.38;;;22.59;35.91
13041;BME280;6587;42.728;23.288;2022-09-20T14:52:36;95091.09;;;23.20;36.00
13041;BME280;6587;42.728;23.288;2022-09-20T14:55:17;95090.06;;;22.89;36.24
13041;BME280;6587;42.728;23.288;2022-09-20T14:57:46;95095.97;;;20.60;39.79
13041;BME280;6587;42.728;23.288;2022-09-20T15:00:14;95099.03;;;21.09;39.24
13041;BME280;6587;42.728;23.288;2022-09-20T15:02:43;95102.94;;;20.55;39.53
13041;BME280;6587;42.728;23.288;2022-09-20T15:05:17;95090.41;;;20.91;38.89
13041;BME280;6587;42.728;23.288;2022-09-20T15:07:46;95098.84;;;21.92;38.16
13041;BME280;6587;42.728;23.288;2022-09-20T15:10:14;95095.53;;;20.71;39.39
13041;BME280;6587;42.728;23.288;2022-09-20T15:12:41;95104.19;;;20.23;40.65
13041;BME280;6587;42.728;23.288;2022-09-20T15:15:11;95094.59;;;21.14;39.61
13041;BME280;6587;42.728;23.288;2022-09-20T15:17:42;95085.84;;;21.40;39.58
13041;BME280;6587;42.728;23.288;2022-09-20T15:20:14;95094.41;;;21.39;39.89
13041;BME280;6587;42.728;23.288;2022-09-20T15:22:42;95098.16;;;21.10;39.61
13041;BME280;6587;42.728;23.288;2022-09-20T15:25:14;95097.69;;;20.80;39.77
13041;BME280;6587;42.728;23.288;2022-09-20T15:27:42;95085.78;;;19.92;41.06
13041;BME280;6587;42.728;23.288;2022-09-20T15:30:13;95097.59;;;21.03;39.61
13041;BME280;6587;42.728;23.288;2022-09-20T15:32:42;95100.97;;;20.39;40.14
13041;BME280;6587;42.728;23.288;2022-09-20T15:35:10;95104.22;;;21.07;39.56
13041;BME280;6587;42.728;23.288;2022-09-20T15:37:38;95100.22;;;20.59;39.86
13041;BME280;6587;42.728;23.288;2022-09-20T15:40:06;95106.16;;;18.95;42.86
13041;BME280;6587;42.728;23.288;2022-09-20T15:42:33;95104.94;;;19.31;42.46
13041;BME280;6587;42.728;23.288;2022-09-20T15:45:06;95111.91;;;19.26;42.87
13041;BME280;6587;42.728;23.288;2022-09-20T15:47:34;95103.47;;;19.48;42.30
13041;BME280;6587;42.728;23.288;2022-09-20T15:50:04;95099.75;;;19.09;43.65
13041;BME280;6587;42.728;23.288;2022-09-20T15:52:33;95112.75;;;19.01;43.77
13041;BME280;6587;42.728;23.288;2022-09-20T15:55:01;95112.75;;;19.98;42.48
13041;BME280;6587;42.728;23.288;2022-09-20T15:57:29;95110.78;;;19.83;42.82
13041;BME280;6587;42.728;23.288;2022-09-20T15:59:56;95113.06;;;20.12;42.34
13041;BME280;6587;42.728;23.288;2022-09-20T16:02:24;95114.50;;;19.96;42.49
13041;BME280;6587;42.728;23.288;2022-09-20T16:04:51;95117.41;;;20.54;41.69
13041;BME280;6587;42.728;23.288;2022-09-20T16:07:22;95122.88;;;18.76;44.87
13041;BME280;6587;42.728;23.288;2022-09-20T16:09:51;95123.75;;;18.75;44.51
13041;BME280;6587;42.728;23.288;2022-09-20T16:12:18;95126.47;;;18.14;45.81
13041;BME280;6587;42.728;23.288;2022-09-20T16:14:45;95128.31;;;17.48;46.81
13041;BME280;6587;42.728;23.288;2022-09-20T16:17:13;95130.78;;;17.19;47.50
13041;BME280;6587;42.728;23.288;2022-09-20T16:19:40;95131.59;;;16.12;49.90
13041;BME280;6587;42.728;23.288;2022-09-20T16:22:07;95136.69;;;15.25;52.76
13041;BME280;6587;42.728;23.288;2022-09-20T16:24:35;95139.19;;;14.77;55.29
13041;BME280;6587;42.728;23.288;2022-09-20T16:27:04;95140.13;;;14.72;56.14
13041;BME280;6587;42.728;23.288;2022-09-20T16:29:32;95146.28;;;14.55;57.45
13041;BME280;6587;42.728;23.288;2022-09-20T16:32:00;95145.72;;;14.35;59.37
13041;BME280;6587;42.728;23.288;2022-09-20T16:34:29;95145.69;;;14.36;60.54
13041;BME280;6587;42.728;23.288;2022-09-20T16:36:58;95148.41;;;14.24;61.79
13041;BME280;6587;42.728;23.288;2022-09-20T16:39:26;95145.38;;;13.99;63.08
13041;BME280;6587;42.728;23.288;2022-09-20T16:41:56;95152.31;;;13.82;65.62
13041;BME280;6587;42.728;23.288;2022-09-20T16:44:25;95153.38;;;13.64;66.66
13041;BME280;6587;42.728;23.288;2022-09-20T16:46:52;95160.00;;;13.71;67.74
13041;BME280;6587;42.728;23.288;2022-09-20T16:49:19;95164.34;;;13.60;69.46
13041;BME280;6587;42.728;23.288;2022-09-20T16:51:46;95162.78;;;13.49;71.95
13041;BME280;6587;42.728;23.288;2022-09-20T16:54:13;95164.56;;;13.40;72.79
13041;BME280;6587;42.728;23.288;2022-09-20T16:56:42;95159.66;;;13.23;74.39
13041;BME280;6587;42.728;23.288;2022-09-20T16:59:12;95158.88;;;13.16;75.33
13041;BME280;6587;42.728;23.288;2022-09-20T17:01:40;95162.41;;;12.98;77.30
13041;BME280;6587;42.728;23.288;2022-09-20T17:04:08;95161.59;;;12.96;77.53
13041;BME280;6587;42.728;23.288;2022-09-20T17:06:37;95170.00;;;12.94;77.54
13041;BME280;6587;42.728;23.288;2022-09-20T17:09:05;95170.00;;;12.95;77.98
13041;BME280;6587;42.728;23.288;2022-09-20T17:11:34;95170.91;;;12.87;78.91
13041;BME280;6587;42.728;23.288;2022-09-20T17:14:02;95166.66;;;12.92;78.20
13041;BME280;6587;42.728;23.288;2022-09-20T17:16:32;95177.78;;;12.63;80.24
13041;BME280;6587;42.728;23.288;2022-09-20T17:19:01;95175.31;;;12.59;80.42
13041;BME280;6587;42.728;23.288;2022-09-20T17:21:29;95171.88;;;12.72;78.96
13041;BME280;6587;42.728;23.288;2022-09-20T17:23:59;95176.00;;;12.77;79.69
13041;BME280;6587;42.728;23.288;2022-09-20T17:26:31;95183.72;;;12.56;80.53
13041;BME280;6587;42.728;23.288;2022-09-20T17:28:59;95182.13;;;12.46;81.46
13041;BME280;6587;42.728;23.288;2022-09-20T17:31:28;95189.56;;;12.61;79.58
13041;BME280;6587;42.728;23.288;2022-09-20T17:33:57;95186.22;;;12.56;80.04
13041;BME280;6587;42.728;23.288;2022-09-20T17:36:26;95191.34;;;12.45;79.88
13041;BME280;6587;42.728;23.288;2022-09-20T17:38:55;95188.91;;;12.35;81.29
13041;BME280;6587;42.728;23.288;2022-09-20T17:41:23;95195.56;;;12.40;80.52
13041;BME280;6587;42.728;23.288;2022-09-20T17:43:52;95190.53;;;12.43;80.32
13041;BME280;6587;42.728;23.288;2022-09-20T17:46:20;95191.38;;;12.41;79.73
13041;BME280;6587;42.728;23.288;2022-09-20T17:48:50;95188.00;;;12.45;79.38
13041;BME280;6587;42.728;23.288;2022-09-20T17:51:22;95199.78;;;12.38;80.72
13041;BME280;6587;42.728;23.288;2022-09-20T17:53:50;95203.00;;;12.60;79.13
13041;BME280;6587;42.728;23.288;2022-09-20T17:56:18;95197.19;;;12.49;83.38
13041;BME280;6587;42.728;23.288;2022-09-20T17:58:47;95207.38;;;12.32;85.90
13041;BME280;6587;42.728;23.288;2022-09-20T18:01:16;95212.44;;;12.26;86.47
13041;BME280;6587;42.728;23.288;2022-09-20T18:03:47;95215.91;;;12.02;88.65
13041;BME280;6587;42.728;23.288;2022-09-20T18:06:16;95214.22;;;11.98;89.37
13041;BME280;6587;42.728;23.288;2022-09-20T18:08:49;95213.44;;;11.87;88.50
13041;BME280;6587;42.728;23.288;2022-09-20T18:11:18;95220.13;;;11.95;87.16
13041;BME280;6587;42.728;23.288;2022-09-20T18:13:46;95226.00;;;11.96;87.12
13041;BME280;6587;42.728;23.288;2022-09-20T18:16:15;95187.50;;;11.74;86.57
13041;BME280;6587;42.728;23.288;2022-09-20T18:18:43;95208.47;;;11.73;87.74
13041;BME280;6587;42.728;23.288;2022-09-20T18:21:12;95195.06;;;11.69;86.42
13041;BME280;6587;42.728;23.288;2022-09-20T18:23:40;95229.38;;;11.81;87.05
13041;BME280;6587;42.728;23.288;2022-09-20T18:26:10;95213.44;;;11.82;86.54
13041;BME280;6587;42.728;23.288;2022-09-20T18:28:56;95207.56;;;11.83;86.02
13041;BME280;6587;42.728;23.288;2022-09-20T18:31:27;95223.41;;;12.05;84.27
13041;BME280;6587;42.728;23.288;2022-09-20T18:33:58;95223.44;;;12.03;84.46
13041;BME280;6587;42.728;23.288;2022-09-20T18:36:26;95217.53;;;12.12;84.20
13041;BME280;6587;42.728;23.288;2022-09-20T18:38:54;95224.28;;;12.04;85.56
13041;BME280;6587;42.728;23.288;2022-09-20T18:41:25;95217.66;;;11.85;86.13
13041;BME280;6587;42.728;23.288;2022-09-20T18:43:53;95230.19;;;11.89;85.55
13041;BME280;6587;42.728;23.288;2022-09-20T18:46:22;95235.25;;;11.85;88.44
13041;BME280;6587;42.728;23.288;2022-09-20T18:48:50;95237.78;;;11.66;90.29
13041;BME280;6587;42.728;23.288;2022-09-20T18:51:18;95213.44;;;11.88;87.48
13041;BME280;6587;42.728;23.288;2022-09-20T18:53:45;95211.72;;;12.06;86.65
13041;BME280;6587;42.728;23.288;2022-09-20T18:56:20;95223.41;;;12.10;85.22
13041;BME280;6587;42.728;23.288;2022-09-20T18:58:51;95236.00;;;12.03;87.46
13041;BME280;6587;42.728;23.288;2022-09-20T19:07:24;95229.44;;;11.52;93.38
13041;BME280;6587;42.728;23.288;2022-09-20T19:09:58;95231.97;;;11.52;94.63
13041;BME280;6587;42.728;23.288;2022-09-20T19:12:34;95229.50;;;11.23;96.49
13041;BME280;6587;42.728;23.288;2022-09-20T19:15:20;95240.38;;;11.19;96.05
13041;BME280;6587;42.728;23.288;2022-09-20T19:18:04;95239.53;;;11.20;95.83
13041;BME280;6587;42.728;23.288;2022-09-20T19:20:41;95227.81;;;11.26;95.33
13041;BME280;6587;42.728;23.288;2022-09-20T19:23:26;95237.03;;;10.95;97.82
13041;BME280;6587;42.728;23.288;2022-09-20T19:26:02;95185.16;;;10.45;99.51
13041;BME280;6587;42.728;23.288;2022-09-20T19:28:32;95245.41;;;10.80;98.56
13041;BME280;6587;42.728;23.288;2022-09-20T19:31:02;95242.03;;;10.69;100.00
13041;BME280;6587;42.728;23.288;2022-09-20T19:33:29;95218.59;;;10.56;100.00
13041;BME280;6587;42.728;23.288;2022-09-20T19:35:57;95255.44;;;10.77;100.00
13041;BME280;6587;42.728;23.288;2022-09-20T19:38:30;95244.53;;;10.63;100.00
13041;BME280;6587;42.728;23.288;2022-09-20T19:41:08;95239.53;;;10.66;100.00
13041;BME280;6587;42.728;23.288;2022-09-20T19:44:00;95255.44;;;10.73;100.00
13041;BME280;6587;42.728;23.288;2022-09-20T19:46:51;95249.53;;;10.52;99.45
13041;BME280;6587;42.728;23.288;2022-09-20T19:49:24;95255.41;;;10.70;99.23
13041;BME280;6587;42.728;23.288;2022-09-20T19:51:55;95264.59;;;10.60;100.00
13041;BME280;6587;42.728;23.288;2022-09-20T19:54:23;95251.25;;;10.79;98.53
13041;BME280;6587;42.728;23.288;2022-09-20T19:56:53;95240.31;;;10.33;100.00
13041;BME280;6587;42.728;23.288;2022-09-20T19:59:21;95257.03;;;10.35;100.00
13041;BME280;6587;42.728;23.288;2022-09-20T20:01:51;95254.53;;;10.40;100.00
13041;BME280;6587;42.728;23.288;2022-09-20T20:04:19;95262.94;;;10.50;100.00
13041;BME280;6587;42.728;23.288;2022-09-20T20:06:53;95253.66;;;10.29;100.00
13041;BME280;6587;42.728;23.288;2022-09-20T20:09:30;95261.19;;;10.38;100.00
13041;BME280;6587;42.728;23.288;2022-09-20T20:12:03;95267.06;;;10.32;100.00
13041;BME280;6587;42.728;23.288;2022-09-20T20:14:38;95264.41;;;10.03;100.00
13041;BME280;6587;42.728;23.288;2022-09-20T20:17:22;95259.44;;;10.14;100.00
13041;BME280;6587;42.728;23.288;2022-09-20T20:20:10;95271.97;;;10.11;100.00
13041;BME280;6587;42.728;23.288;2022-09-20T20:23:18;95273.50;;;9.81;100.00
13041;BME280;6587;42.728;23.288;2022-09-20T20:25:54;95275.97;;;9.75;100.00
13041;BME280;6587;42.728;23.288;2022-09-20T20:28:24;95266.00;;;9.81;100.00
13041;BME280;6587;42.728;23.288;2022-09-20T20:30:52;95273.50;;;9.81;100.00
13041;BME280;6587;42.728;23.288;2022-09-20T20:33:21;95274.34;;;9.83;100.00
13041;BME280;6587;42.728;23.288;2022-09-20T20:35:51;95277.66;;;9.73;100.00
13041;BME280;6587;42.728;23.288;2022-09-20T20:38:19;95279.31;;;9.76;100.00
13041;BME280;6587;42.728;23.288;2022-09-20T20:40:56;95276.03;;;9.87;100.00
13041;BME280;6587;42.728;23.288;2022-09-20T20:43:25;95272.63;;;9.75;100.00
13041;BME280;6587;42.728;23.288;2022-09-20T20:45:54;95276.03;;;9.84;100.00
13041;BME280;6587;42.728;23.288;2022-09-20T20:48:23;95271.84;;;9.85;100.00
13041;BME280;6587;42.728;23.288;2022-09-20T20:50:58;95285.94;;;9.69;100.00
13041;BME280;6587;42.728;23.288;2022-09-20T20:53:29;95271.66;;;9.48;100.00
13041;BME280;6587;42.728;23.288;2022-09-20T20:56:01;95271.69;;;9.53;100.00
13041;BME280;6587;42.728;23.288;2022-09-20T20:58:29;95281.78;;;9.73;100.00
13041;BME280;6587;42.728;23.288;2022-09-20T21:01:09;95285.78;;;9.38;100.00
13041;BME280;6587;42.728;23.288;2022-09-20T21:03:38;95284.91;;;9.36;100.00
13041;BME280;6587;42.728;23.288;2022-09-20T21:06:06;95256.50;;;9.27;100.00
13041;BME280;6587;42.728;23.288;2022-09-20T21:08:35;95279.13;;;9.47;100.00
13041;BME280;6587;42.728;23.288;2022-09-20T21:11:04;95281.81;;;9.74;100.00
13041;BME280;6587;42.728;23.288;2022-09-20T21:13:31;95255.81;;;9.52;100.00
13041;BME280;6587;42.728;23.288;2022-09-20T21:16:04;95284.31;;;9.74;100.00
13041;BME280;6587;42.728;23.288;2022-09-20T21:18:33;95288.47;;;9.72;100.00
13041;BME280;6587;42.728;23.288;2022-09-20T21:21:02;95289.28;;;9.67;100.00
13041;BME280;6587;42.728;23.288;2022-09-20T21:23:31;95286.78;;;9.63;100.00
13041;BME280;6587;42.728;23.288;2022-09-20T21:26:05;95289.38;;;9.86;100.00
13041;BME280;6587;42.728;23.288;2022-09-20T21:28:39;95286.00;;;9.75;100.00
13041;BME280;6587;42.728;23.288;2022-09-20T21:31:08;95281.06;;;9.91;100.00
13041;BME280;6587;42.728;23.288;2022-09-20T21:33:37;95287.78;;;9.99;100.00
13041;BME280;6587;42.728;23.288;2022-09-20T21:36:06;95287.72;;;9.90;100.00
13041;BME280;6587;42.728;23.288;2022-09-20T21:38:34;95291.06;;;9.91;100.00
13041;BME280;6587;42.728;23.288;2022-09-20T21:41:04;95281.06;;;9.91;100.00
13041;BME280;6587;42.728;23.288;2022-09-20T21:43:31;95288.59;;;9.92;100.00
13041;BME280;6587;42.728;23.288;2022-09-20T21:45:58;95284.41;;;9.93;100.00
13041;BME280;6587;42.728;23.288;2022-09-20T21:48:26;95290.25;;;9.88;100.00
13041;BME280;6587;42.728;23.288;2022-09-20T21:51:00;95286.84;;;9.77;100.00
13041;BME280;6587;42.728;23.288;2022-09-20T21:53:29;95288.50;;;9.80;100.00
13041;BME280;6587;42.728;23.288;2022-09-20T21:55:56;95290.03;;;9.49;100.00
13041;BME280;6587;42.728;23.288;2022-09-20T21:58:24;95282.09;;;8.97;100.00
13041;BME280;6587;42.728;23.288;2022-09-20T22:01:01;95284.56;;;8.92;100.00
13041;BME280;6587;42.728;23.288;2022-09-20T22:03:31;95282.81;;;8.80;100.00
13041;BME280;6587;42.728;23.288;2022-09-20T22:06:06;95277.84;;;8.85;100.00
13041;BME280;6587;42.728;23.288;2022-09-20T22:08:36;95268.75;;;8.95;100.00
13041;BME280;6587;42.728;23.288;2022-09-20T22:11:04;95259.34;;;8.64;100.00
13041;BME280;6587;42.728;23.288;2022-09-20T22:13:33;95272.75;;;8.73;100.00
13041;BME280;6587;42.728;23.288;2022-09-20T22:16:04;95268.53;;;8.68;100.00
13041;BME280;6587;42.728;23.288;2022-09-20T22:18:33;95266.09;;;8.78;100.00
13041;BME280;6587;42.728;23.288;2022-09-20T22:21:02;95261.00;;;8.65;100.00
13041;BME280;6587;42.728;23.288;2022-09-20T22:23:29;95270.09;;;8.57;100.00
13041;BME280;6587;42.728;23.288;2022-09-20T22:26:01;95277.63;;;8.62;100.00
13041;BME280;6587;42.728;23.288;2022-09-20T22:28:28;95274.34;;;8.64;100.00
13041;BME280;6587;42.728;23.288;2022-09-20T22:30:55;95252.38;;;8.37;100.00
13041;BME280;6587;42.728;23.288;2022-09-20T22:33:27;95276.59;;;8.40;100.00
13041;BME280;6587;42.728;23.288;2022-09-20T22:35:55;95275.16;;;8.65;100.00
13041;BME280;6587;42.728;23.288;2022-09-20T22:38:22;95278.38;;;8.53;100.00
13041;BME280;6587;42.728;23.288;2022-09-20T22:40:53;95275.09;;;8.57;100.00
13041;BME280;6587;42.728;23.288;2022-09-20T22:43:22;95281.91;;;8.74;100.00
13041;BME280;6587;42.728;23.288;2022-09-20T22:45:49;95277.75;;;8.74;100.00
13041;BME280;6587;42.728;23.288;2022-09-20T22:48:16;95276.06;;;8.75;100.00
13041;BME280;6587;42.728;23.288;2022-09-20T22:50:43;95283.53;;;8.68;100.00
13041;BME280;6587;42.728;23.288;2022-09-20T22:53:10;95291.66;;;8.48;100.00
13041;BME280;6587;42.728;23.288;2022-09-20T22:55:37;95297.53;;;8.51;100.00
13041;BME280;6587;42.728;23.288;2022-09-20T22:58:04;95289.41;;;8.74;100.00
13041;BME280;6587;42.728;23.288;2022-09-20T23:00:32;95285.31;;;8.82;100.00
13041;BME280;6587;42.728;23.288;2022-09-20T23:02:59;95280.31;;;8.79;100.00
13041;BME280;6587;42.728;23.288;2022-09-20T23:05:26;95275.38;;;8.86;100.00
13041;BME280;6587;42.728;23.288;2022-09-20T23:07:53;95271.06;;;8.73;100.00
13041;BME280;6587;42.728;23.288;2022-09-20T23:10:20;95278.78;;;8.98;100.00
13041;BME280;6587;42.728;23.288;2022-09-20T23:12:51;95278.88;;;9.10;100.00
13041;BME280;6587;42.728;23.288;2022-09-20T23:15:18;95280.81;;;8.47;100.00
13041;BME280;6587;42.728;23.288;2022-09-20T23:17:46;95286.50;;;8.37;100.00
13041;BME280;6587;42.728;23.288;2022-09-20T23:20:13;95286.78;;;7.88;100.00
13041;BME280;6587;42.728;23.288;2022-09-20T23:22:40;95281.75;;;7.87;100.00
13041;BME280;6587;42.728;23.288;2022-09-20T23:25:08;95285.06;;;7.84;100.00
13041;BME280;6587;42.728;23.288;2022-09-20T23:27:35;95281.34;;;8.22;100.00
13041;BME280;6587;42.728;23.288;2022-09-20T23:30:04;95269.44;;;8.02;100.00
13041;BME280;6587;42.728;23.288;2022-09-20T23:32:31;95271.97;;;8.04;100.00
13041;BME280;6587;42.728;23.288;2022-09-20T23:34:59;95287.81;;;8.03;100.00
13041;BME280;6587;42.728;23.288;2022-09-20T23:37:26;95285.13;;;7.89;100.00
13041;BME280;6587;42.728;23.288;2022-09-20T23:39:53;95286.84;;;7.94;100.00
13041;BME280;6587;42.728;23.288;2022-09-20T23:42:20;95274.06;;;7.71;100.00
13041;BME280;6587;42.728;23.288;2022-09-20T23:44:47;95284.47;;;8.05;100.00
13041;BME280;6587;42.728;23.288;2022-09-20T23:47:13;95292.75;;;8.00;100.00
13041;BME280;6587;42.728;23.288;2022-09-20T23:49:40;95289.00;;;7.67;100.00
13041;BME280;6587;42.728;23.288;2022-09-20T23:52:09;95290.81;;;7.79;100.00
13041;BME280;6587;42.728;23.288;2022-09-20T23:54:35;95289.06;;;7.71;100.00
13041;BME280;6587;42.728;23.288;2022-09-20T23:57:03;95290.69;;;7.69;100.00
13041;BME280;6587;42.728;23.288;2022-09-20T23:59:30;95290.69;;;7.69;100.00
